Terminal Aerodrome Forecast
Issued by NWS

Home | Current Version | Previous Version | Text Only | Print | Product List | Glossary On
Versions: 1 2 3 4 5 6 7 8 9 10 11 12 13 14 15 16 17 18
000
FTUS41 KILN 292339
TAFLCK
TAF
KLCK 292339Z 3000/3024 06008KT P6SM SCT250
     FM300600 07008KT P6SM BKN100
     FM301300 11011KT P6SM BKN060
     FM301600 14013G22KT P6SM BKN050
     FM302100 18013G22KT P6SM BKN070 OVC250
     FM302300 15009KT P6SM OVC070=

USA.gov is the U.S. government's official web portal to all federal, state and local government web resources and services.